Terminal Aerodrome Forecast
Issued by NWS

Home | Current Version | Previous Version | Graphics & Text | Print | Product List | Glossary On
Versions: 1 2 3 4 5 6 7 8 9 10 11 12 13 14 15 16 17 18 19
000
FTUS43 KBIS 201125
TAFDIK
TAF
KDIK 201125Z 2012/2112 28011KT P6SM VCSH OVC070
     FM201500 25014KT P6SM SKC
     FM210100 22009KT P6SM SCT200=

USA.gov is the U.S. government's official web portal to all federal, state and local government web resources and services.